ENVA Airport Information

Runway Information
Runway 09 Length 9052 ft width 148 ft
Elevation 17 ft Threshold 830 ft Heading 90
Runway 27 Length 9052 ft Width 148 ft
Elevation 56 ft Threshold 459 ft Heading 270
Runway 13 Length 1771 ft width 118 ft
Elevation 30 ft Threshold 412 ft Heading 134
Runway 31 Length 1771 ft Width 118 ft
Elevation 54 ft Threshold 962 ft Heading 314
Runway 14 Length 1117 ft width 118 ft
Elevation 30 ft Threshold ft Heading 134
Runway 32 Length 1117 ft Width 118 ft
Elevation 54 ft Threshold ft Heading 314
Airport Frequencies
Type APP Name APP Frequency 118.6 MHZ
Type ATIS Name ATIS Frequency 127.55 MHZ
Type TWR Name TWR Frequency 119.4 MHZ
Type GND Name Værnes gro Frequency 121.6 MHZ
Airport Navaids
Type NDB Name Flornes Frequency 380 KHZ
Type NDB Name Grakallen Frequency 358 KHZ
Type VOR-DME Name Trondheim Frequency 112500 KHZ
Type TACAN Name Vaernes Frequency 109600 KHZ
Airport Weather Information & NOTAM
ADDS - METARS form results

(1254 UTC 06 February 2023)
Data provider http://aviationweather.gov/metar/data/
 
METAR text: ENVA 061250Z 10008KT 9999 BKN036 02/01 Q1029 NOSIG RMK WIND 670FT 22010KT
Conditions at: ENVA (TRONDHEIM/VAERNE, NO) observed 1250 UTC 06 February 2023
Temperature: 2.0°C (36°F)
Dewpoint: 1.0°C (34°F) [RH = 93%]
Pressure (altimeter): 30.38 inches Hg (1029.0 mb)
Winds: from the E (100 degrees) at 9 MPH (8 knots; 4.1 m/s)
Visibility: 6 or more miles (10+ km)
Ceiling: 3600 feet AGL
Clouds: broken clouds at 3600 feet AGL
Weather: no significant weather observed at this time

METAR text: ENVA 061220Z 08006KT 9999 BKN039 02/01 Q1030 NOSIG RMK WIND 670FT 20010KT
Conditions at: ENVA (TRONDHEIM/VAERNE, NO) observed 1220 UTC 06 February 2023
Temperature: 2.0°C (36°F)
Dewpoint: 1.0°C (34°F) [RH = 93%]
Pressure (altimeter): 30.41 inches Hg (1030.0 mb)
Winds: from the E (80 degrees) at 7 MPH (6 knots; 3.1 m/s)
Visibility: 6 or more miles (10+ km)
Ceiling: 3900 feet AGL
Clouds: broken clouds at 3900 feet AGL
Weather: no significant weather observed at this time

Forecast for: ENVA (TRONDHEIM/VAERNE, NO)
Text: TAF ENVA 0612/0712 11008KT 9999 BKN035
Forecast period: 1200 UTC 06 February 2023 to 1200 UTC 07 February 2023
Forecast type: FROM: standard forecast or significant change
Winds: from the ESE (110 degrees) at 9 MPH (8 knots; 4.1 m/s)
Visibility: 6 or more miles (10+ km)
Ceiling: 3500 feet AGL
Clouds: broken clouds at 3500 feet AGL
Weather: no significant weather forecast for this period
Text: PROB40 0709/0712 26010KT 4000 RASN BKN012
Forecast period: 0900 to 1200 UTC 07 February 2023
Forecast type: PROBABLE: 40 percent likelihood of the following during this time
Winds: from the W (260 degrees) at 12 MPH (10 knots; 5.1 m/s)
Visibility: 2.49 miles (4.01 km)
Ceiling: 1200 feet AGL
Clouds: broken clouds at 1200 feet AGL
Weather: RA SN  (moderate rain, moderate snow)